Time;durP1;ratioP1;P1;durP2;ratioP2;P2;SDS_P1;SDS_P2;PMS_P1;PMS_P2;Temp;Humidity;BMP_temperature;BMP_pressure;BME280_temperature;BME280_humidity;BME280_pressure;Samples;Min_cycle;Max_cycle;Signal;HPM_P1;HPM_P2
2022/11/01 00:01:08;;;;;;;41.47;25.48;;;;;;;;;;5031557;28;20056;-82
2022/11/01 00:03:33;;;;;;;41.47;26.35;;;;;;;;;;5037212;28;20031;-83
2022/11/01 00:05:59;;;;;;;46.47;26.00;;;;;;;;;;5025352;28;20075;-82
2022/11/01 00:08:24;;;;;;;44.17;25.95;;;;;;;;;;5022152;28;20037;-81
2022/11/01 00:10:50;;;;;;;43.22;26.10;;;;;;;;;;5024600;28;20044;-81
2022/11/01 00:13:15;;;;;;;42.53;25.05;;;;;;;;;;5024934;28;20044;-83
2022/11/01 00:15:41;;;;;;;41.28;26.05;;;;;;;;;;5023092;28;20029;-83
2022/11/01 00:18:06;;;;;;;41.08;25.13;;;;;;;;;;5043768;28;20418;-83
2022/11/01 00:20:32;;;;;;;42.65;25.95;;;;;;;;;;5024133;28;20036;-84
2022/11/01 00:22:57;;;;;;;43.80;24.83;;;;;;;;;;5037958;28;20063;-83
2022/11/01 00:25:22;;;;;;;41.80;24.88;;;;;;;;;;5022002;28;20049;-83
2022/11/01 00:27:48;;;;;;;44.17;25.50;;;;;;;;;;5031405;28;20044;-82
2022/11/01 00:30:13;;;;;;;44.67;25.35;;;;;;;;;;5025279;28;20037;-83
2022/11/01 00:32:38;;;;;;;40.38;24.50;;;;;;;;;;5024076;28;20057;-83
2022/11/01 00:35:04;;;;;;;41.65;25.33;;;;;;;;;;5031966;28;20407;-83
2022/11/01 00:37:29;;;;;;;41.53;24.27;;;;;;;;;;5024619;28;20056;-83
2022/11/01 00:39:55;;;;;;;41.85;24.70;;;;;;;;;;5031713;28;20098;-83
2022/11/01 00:42:20;;;;;;;43.55;26.17;;;;;;;;;;5023048;28;20040;-81
2022/11/01 00:44:45;;;;;;;42.95;25.33;;;;;;;;;;5020288;28;20044;-83
2022/11/01 00:47:11;;;;;;;39.80;24.15;;;;;;;;;;5036994;28;20043;-83
2022/11/01 00:49:37;;;;;;;37.97;24.73;;;;;;;;;;5024645;28;20538;-83
2022/11/01 00:52:02;;;;;;;41.30;25.35;;;;;;;;;;5023072;28;20082;-83
2022/11/01 00:54:27;;;;;;;41.97;25.27;;;;;;;;;;5026818;28;20130;-83
2022/11/01 00:56:52;;;;;;;38.90;24.48;;;;;;;;;;5020140;28;20059;-83
2022/11/01 00:59:18;;;;;;;42.20;25.15;;;;;;;;;;5039323;28;20128;-83
2022/11/01 01:01:43;;;;;;;41.88;24.67;;;;;;;;;;5021568;28;20032;-83
2022/11/01 01:04:14;;;;;;;36.95;23.55;;;;;;;;;;5029620;28;20037;-83
2022/11/01 01:06:40;;;;;;;40.33;23.15;;;;;;;;;;5041912;28;20044;-83
2022/11/01 01:09:05;;;;;;;41.13;23.48;;;;;;;;;;5023487;28;20057;-82
2022/11/01 01:11:30;;;;;;;40.25;24.50;;;;;;;;;;5029718;28;20500;-83
2022/11/01 01:13:56;;;;;;;40.95;23.55;;;;;;;;;;5024283;28;20033;-83
2022/11/01 01:16:21;;;;;;;36.13;23.45;;;;;;;;;;5024384;28;20510;-83
2022/11/01 01:18:47;;;;;;;39.03;24.15;;;;;;;;;;5030686;28;20062;-83
2022/11/01 01:21:14;;;;;;;36.70;23.30;;;;;;;;;;5029258;28;20437;-83
2022/11/01 01:23:39;;;;;;;40.38;24.27;;;;;;;;;;5030519;28;20033;-82
2022/11/01 01:26:06;;;;;;;34.92;22.40;;;;;;;;;;5023702;28;20106;-83
2022/11/01 01:28:32;;;;;;;40.60;24.23;;;;;;;;;;5020188;28;20029;-82
2022/11/01 01:30:57;;;;;;;37.85;22.20;;;;;;;;;;5030384;28;20029;-82
2022/11/01 01:33:22;;;;;;;32.97;21.38;;;;;;;;;;5022541;28;20074;-83
2022/11/01 01:35:48;;;;;;;36.75;22.05;;;;;;;;;;5039423;28;20036;-83
2022/11/01 01:38:13;;;;;;;35.47;21.48;;;;;;;;;;5030610;28;20047;-83
2022/11/01 01:40:38;;;;;;;35.33;21.38;;;;;;;;;;5019098;28;20032;-83
2022/11/01 01:43:10;;;;;;;37.50;21.00;;;;;;;;;;5021651;28;20052;-83
2022/11/01 01:45:37;;;;;;;33.80;20.25;;;;;;;;;;5024555;28;20060;-83
2022/11/01 01:48:09;;;;;;;35.08;19.77;;;;;;;;;;5040267;28;20419;-83
2022/11/01 01:50:39;;;;;;;31.58;20.42;;;;;;;;;;5054530;28;20029;-83
2022/11/01 01:53:09;;;;;;;33.80;21.45;;;;;;;;;;5030249;28;20033;-83
2022/11/01 01:56:00;;;;;;;35.80;20.52;;;;;;;;;;5046447;28;20078;-83
2022/11/01 01:58:30;;;;;;;36.08;21.13;;;;;;;;;;5030050;28;20537;-83
2022/11/01 02:00:56;;;;;;;35.20;21.35;;;;;;;;;;5021339;28;20032;-83
2022/11/01 02:03:24;;;;;;;32.30;21.20;;;;;;;;;;5028330;28;20032;-83
2022/11/01 02:05:52;;;;;;;39.30;22.02;;;;;;;;;;5024368;28;20128;-83
2022/11/01 02:08:26;;;;;;;38.85;22.15;;;;;;;;;;5021224;28;20431;-83
2022/11/01 02:10:53;;;;;;;34.17;21.95;;;;;;;;;;5022260;28;20032;-83
2022/11/01 02:13:39;;;;;;;33.63;20.50;;;;;;;;;;5040624;28;20459;-83
2022/11/01 02:16:22;;;;;;;35.78;21.52;;;;;;;;;;4956625;28;20041;-83
2022/11/01 02:18:53;;;;;;;35.00;22.98;;;;;;;;;;4955784;28;20038;-83
2022/11/01 02:21:47;;;;;;;36.17;22.70;;;;;;;;;;4954671;28;20038;-83
2022/11/01 02:24:46;;;;;;;37.35;21.70;;;;;;;;;;4965053;28;20046;-83
2022/11/01 02:27:17;;;;;;;37.97;22.65;;;;;;;;;;4955821;28;20792;-83
2022/11/01 02:30:17;;;;;;;39.40;23.48;;;;;;;;;;4954629;28;20190;-83
2022/11/01 02:32:58;;;;;;;35.30;22.48;;;;;;;;;;4974129;28;20703;-83
2022/11/01 02:35:48;;;;;;;37.25;22.50;;;;;;;;;;4958275;28;20105;-83
2022/11/01 02:38:46;;;;;;;39.08;23.33;;;;;;;;;;4961521;28;20477;-83
2022/11/01 02:41:14;;;;;;;;;;;;;;;;;;4965711;28;20520;-83
2022/11/01 02:44:13;;;;;;;38.33;21.77;;;;;;;;;;4974309;28;19921;-82
2022/11/01 02:47:01;;;;;;;36.10;22.95;;;;;;;;;;4953651;28;20042;-82
2022/11/01 02:49:39;;;;;;;37.38;22.95;;;;;;;;;;4946795;28;20044;-82
2022/11/01 02:52:07;;;;;;;37.63;23.20;;;;;;;;;;4944165;28;20459;-83
2022/11/01 02:54:38;;;;;;;39.20;23.20;;;;;;;;;;5028386;28;20040;-83
2022/11/01 02:57:15;;;;;;;43.92;24.33;;;;;;;;;;5022997;28;20033;-83
2022/11/01 02:59:46;;;;;;;36.97;23.27;;;;;;;;;;5037717;28;20569;-83
2022/11/01 03:02:38;;;;;;;36.55;22.63;;;;;;;;;;5038616;28;20059;-83
2022/11/01 03:05:05;;;;;;;38.70;22.58;;;;;;;;;;5021938;28;20582;-83
2022/11/01 03:07:30;;;;;;;36.75;22.45;;;;;;;;;;5019401;28;20115;-82
2022/11/01 03:09:56;;;;;;;34.22;21.48;;;;;;;;;;5037262;28;20167;-82
2022/11/01 03:12:24;;;;;;;33.72;22.15;;;;;;;;;;5032112;28;20038;-83
2022/11/01 03:15:19;;;;;;;39.38;23.48;;;;;;;;;;5019345;28;20070;-83
2022/11/01 03:17:58;;;;;;;34.42;21.23;;;;;;;;;;5023153;28;20040;-83
2022/11/01 03:20:46;;;;;;;39.97;22.52;;;;;;;;;;5036570;28;20071;-83
2022/11/01 03:23:22;;;;;;;37.00;22.52;;;;;;;;;;5025159;28;20423;-83
2022/11/01 03:25:54;;;;;;;39.67;23.37;;;;;;;;;;5031653;28;20029;-83
2022/11/01 03:28:26;;;;;;;39.88;23.15;;;;;;;;;;5020999;28;20033;-83
2022/11/01 03:30:56;;;;;;;31.00;20.15;;;;;;;;;;5022362;28;20064;-83
2022/11/01 03:33:23;;;;;;;36.70;21.55;;;;;;;;;;5024155;28;20488;-83
2022/11/01 03:35:52;;;;;;;38.63;22.80;;;;;;;;;;5022012;28;20032;-83
2022/11/01 03:38:19;;;;;;;38.28;22.20;;;;;;;;;;5027276;28;20064;-83
2022/11/01 03:40:49;;;;;;;37.28;22.00;;;;;;;;;;5037114;28;20499;-83
2022/11/01 03:43:16;;;;;;;33.47;22.20;;;;;;;;;;5035308;28;20037;-83
2022/11/01 03:45:42;;;;;;;38.08;22.58;;;;;;;;;;5027603;28;20029;-83
2022/11/01 03:48:08;;;;;;;37.30;22.55;;;;;;;;;;5034861;28;20098;-82
2022/11/01 03:50:38;;;;;;;38.47;22.98;;;;;;;;;;5033770;28;20032;-82
2022/11/01 03:53:04;;;;;;;40.95;22.20;;;;;;;;;;5016032;28;20072;-85
2022/11/01 03:55:29;;;;;;;35.00;21.33;;;;;;;;;;5032880;28;20467;-87
2022/11/01 03:57:56;;;;;;;37.70;22.73;;;;;;;;;;5035192;28;20044;-84
2022/11/01 04:00:29;;;;;;;39.25;22.75;;;;;;;;;;5023065;28;20091;-84
2022/11/01 04:02:55;;;;;;;35.53;22.38;;;;;;;;;;5022713;28;20040;-84
2022/11/01 04:05:22;;;;;;;37.55;22.70;;;;;;;;;;5025911;28;20040;-85
2022/11/01 04:07:50;;;;;;;35.33;21.60;;;;;;;;;;5026820;28;20040;-85
2022/11/01 04:10:16;;;;;;;38.53;22.67;;;;;;;;;;5028216;28;20587;-84
2022/11/01 04:12:44;;;;;;;38.70;22.65;;;;;;;;;;5028360;28;20119;-85
2022/11/01 04:21:19;;;;;;;36.00;22.52;;;;;;;;;;4999068;28;20094;-85
2022/11/01 04:23:45;;;;;;;34.35;21.88;;;;;;;;;;5029263;28;20463;-83
2022/11/01 04:26:12;;;;;;;37.42;22.08;;;;;;;;;;5026287;28;20036;-84
2022/11/01 04:28:38;;;;;;;37.53;22.70;;;;;;;;;;5026865;28;20044;-82
2022/11/01 04:31:04;;;;;;;37.60;23.73;;;;;;;;;;5028091;28;20035;-83
2022/11/01 04:33:30;;;;;;;40.00;23.42;;;;;;;;;;5021493;28;20077;-85
2022/11/01 04:35:56;;;;;;;38.15;23.20;;;;;;;;;;5022469;28;20500;-85
2022/11/01 04:38:21;;;;;;;38.30;23.63;;;;;;;;;;5021158;28;20041;-85
2022/11/01 04:40:46;;;;;;;43.30;24.50;;;;;;;;;;5042009;28;20108;-85
2022/11/01 04:43:12;;;;;;;41.13;23.95;;;;;;;;;;5037171;28;20080;-86
2022/11/01 04:45:38;;;;;;;40.47;23.98;;;;;;;;;;5038627;28;20040;-86
2022/11/01 04:48:11;;;;;;;37.83;24.05;;;;;;;;;;5023962;28;20066;-85
2022/11/01 04:50:36;;;;;;;40.03;23.33;;;;;;;;;;5026532;28;20419;-85
2022/11/01 04:53:02;;;;;;;37.22;23.63;;;;;;;;;;5037443;28;20044;-85
2022/11/01 04:55:27;;;;;;;40.13;23.77;;;;;;;;;;5038149;28;20407;-85
2022/11/01 04:57:53;;;;;;;38.28;23.70;;;;;;;;;;5022136;28;20423;-85
2022/11/01 05:00:18;;;;;;;39.75;22.75;;;;;;;;;;5025246;28;20041;-85
2022/11/01 05:02:44;;;;;;;38.90;22.52;;;;;;;;;;5036725;28;20112;-86
2022/11/01 05:05:10;;;;;;;37.67;23.35;;;;;;;;;;5021145;28;20528;-87
2022/11/01 05:07:36;;;;;;;35.47;23.20;;;;;;;;;;5044948;28;20034;-83
2022/11/01 05:10:02;;;;;;;41.30;24.23;;;;;;;;;;5025111;28;20694;-84
2022/11/01 05:12:27;;;;;;;37.88;22.70;;;;;;;;;;5035776;28;20499;-85
2022/11/01 05:14:53;;;;;;;38.80;22.42;;;;;;;;;;5031269;28;20062;-84
2022/11/01 05:17:18;;;;;;;39.50;22.38;;;;;;;;;;5029627;28;20040;-86
2022/11/01 05:19:44;;;;;;;36.15;21.95;;;;;;;;;;5021371;28;20033;-85
2022/11/01 05:22:09;;;;;;;37.53;22.23;;;;;;;;;;5024018;28;20040;-84
2022/11/01 05:24:34;;;;;;;37.85;23.00;;;;;;;;;;5034998;28;20111;-85
2022/11/01 05:27:03;;;;;;;40.88;23.52;;;;;;;;;;5019931;28;20112;-84
2022/11/01 05:29:28;;;;;;;36.67;23.58;;;;;;;;;;5030731;28;20497;-85
2022/11/01 05:31:54;;;;;;;37.65;22.52;;;;;;;;;;5006852;28;20033;-86
2022/11/01 05:34:19;;;;;;;32.28;22.08;;;;;;;;;;4994672;28;20042;-85
2022/11/01 05:36:44;;;;;;;35.88;22.90;;;;;;;;;;5020964;28;20037;-85
2022/11/01 05:39:10;;;;;;;36.58;22.23;;;;;;;;;;5028169;28;20033;-85
2022/11/01 05:41:36;;;;;;;37.28;22.55;;;;;;;;;;5036185;28;20103;-85
2022/11/01 05:44:04;;;;;;;39.17;22.95;;;;;;;;;;5032163;28;20451;-85
2022/11/01 05:46:29;;;;;;;35.13;20.73;;;;;;;;;;5039984;28;20037;-85
2022/11/01 05:48:57;;;;;;;41.97;21.65;;;;;;;;;;5031954;28;20029;-85
2022/11/01 05:51:23;;;;;;;40.53;22.50;;;;;;;;;;5023243;28;20119;-85
2022/11/01 05:53:48;;;;;;;35.67;22.50;;;;;;;;;;5025413;28;20543;-85
2022/11/01 05:56:15;;;;;;;36.78;22.25;;;;;;;;;;5030181;28;20120;-85
2022/11/01 05:58:40;;;;;;;38.83;22.98;;;;;;;;;;5030953;28;20391;-85
2022/11/01 06:01:06;;;;;;;40.22;22.60;;;;;;;;;;5021787;28;20055;-85
2022/11/01 06:03:32;;;;;;;37.03;23.02;;;;;;;;;;5031583;28;20037;-85
2022/11/01 06:05:58;;;;;;;43.95;23.85;;;;;;;;;;5031022;28;20429;-85
2022/11/01 06:08:26;;;;;;;40.88;22.38;;;;;;;;;;5034748;28;20033;-85
2022/11/01 06:10:52;;;;;;;42.15;22.35;;;;;;;;;;5026986;28;20037;-84
2022/11/01 06:13:18;;;;;;;37.85;23.23;;;;;;;;;;5027951;28;20043;-85
2022/11/01 06:15:43;;;;;;;38.28;22.23;;;;;;;;;;5034691;28;20043;-84
2022/11/01 06:18:09;;;;;;;42.25;23.05;;;;;;;;;;5035170;28;20045;-86
2022/11/01 06:20:35;;;;;;;40.20;24.20;;;;;;;;;;5019291;28;20040;-83
2022/11/01 06:23:07;;;;;;;43.42;24.58;;;;;;;;;;5023758;28;20040;-82
2022/11/01 06:25:36;;;;;;;39.53;22.77;;;;;;;;;;5004066;28;20490;-82
2022/11/01 06:28:01;;;;;;;41.95;24.45;;;;;;;;;;5027284;28;20079;-82
2022/11/01 06:30:27;;;;;;;39.90;23.27;;;;;;;;;;5018448;28;20029;-82
2022/11/01 06:32:58;;;;;;;41.00;22.73;;;;;;;;;;5020455;28;20041;-83
2022/11/01 06:35:25;;;;;;;37.85;23.58;;;;;;;;;;5029755;28;20082;-82
2022/11/01 06:37:50;;;;;;;38.33;22.70;;;;;;;;;;5033887;28;20100;-81
2022/11/01 06:40:15;;;;;;;38.05;22.65;;;;;;;;;;5021043;28;20439;-83
2022/11/01 06:42:41;;;;;;;39.97;23.90;;;;;;;;;;5030932;28;20029;-82
2022/11/01 06:45:06;;;;;;;34.72;21.95;;;;;;;;;;5018472;28;20052;-82
2022/11/01 06:47:32;;;;;;;40.10;21.25;;;;;;;;;;5034164;28;20241;-82
2022/11/01 06:49:57;;;;;;;35.45;21.67;;;;;;;;;;5019182;28;20119;-82
2022/11/01 06:52:22;;;;;;;36.38;22.10;;;;;;;;;;5021935;28;20047;-85
2022/11/01 06:54:48;;;;;;;37.90;21.33;;;;;;;;;;5030174;28;20503;-85
2022/11/01 06:57:13;;;;;;;34.92;21.35;;;;;;;;;;5021485;28;20036;-84
2022/11/01 06:59:39;;;;;;;35.72;20.98;;;;;;;;;;5038213;28;20044;-85
2022/11/01 07:02:04;;;;;;;38.65;21.38;;;;;;;;;;5034641;28;20038;-85
2022/11/01 07:04:30;;;;;;;32.85;20.25;;;;;;;;;;5040259;28;20040;-85
2022/11/01 07:06:56;;;;;;;33.00;19.95;;;;;;;;;;5027559;28;20589;-85
2022/11/01 07:09:24;;;;;;;31.20;19.83;;;;;;;;;;5021762;28;20029;-84
2022/11/01 07:11:49;;;;;;;33.67;20.15;;;;;;;;;;5035659;28;20042;-84
2022/11/01 07:14:14;;;;;;;31.13;19.90;;;;;;;;;;5034635;28;20486;-85
2022/11/01 07:16:40;;;;;;;30.42;18.65;;;;;;;;;;5025041;28;21219;-85
2022/11/01 07:19:10;;;;;;;29.05;18.48;;;;;;;;;;5023096;28;20505;-84
2022/11/01 07:21:36;;;;;;;136.70;71.95;;;;;;;;;;5052076;28;20040;-81
2022/11/01 07:24:01;;;;;;;26.85;18.83;;;;;;;;;;5022140;28;20368;-80
2022/11/01 07:26:27;;;;;;;25.77;17.60;;;;;;;;;;5017580;28;20836;-80
2022/11/01 07:28:52;;;;;;;30.17;18.70;;;;;;;;;;5020458;28;20037;-80
2022/11/01 07:31:17;;;;;;;30.00;18.75;;;;;;;;;;5027717;28;20522;-80
2022/11/01 07:33:43;;;;;;;30.77;18.48;;;;;;;;;;5035237;28;20454;-81
2022/11/01 07:36:08;;;;;;;33.22;18.80;;;;;;;;;;5006303;28;20551;-80
2022/11/01 07:38:34;;;;;;;28.48;18.48;;;;;;;;;;5020455;28;20060;-81
2022/11/01 07:40:59;;;;;;;24.85;17.00;;;;;;;;;;5019557;28;20121;-81
2022/11/01 07:43:25;;;;;;;28.60;17.77;;;;;;;;;;5028329;28;20099;-81
2022/11/01 07:45:50;;;;;;;28.33;17.88;;;;;;;;;;5033213;28;20120;-81
2022/11/01 07:48:17;;;;;;;27.65;17.77;;;;;;;;;;5019687;28;20056;-81
2022/11/01 07:50:43;;;;;;;25.38;17.38;;;;;;;;;;5037346;28;20044;-81
2022/11/01 07:53:16;;;;;;;27.02;16.83;;;;;;;;;;5020633;28;20041;-81
2022/11/01 07:55:42;;;;;;;27.60;16.50;;;;;;;;;;5021826;28;20392;-81
2022/11/01 07:58:09;;;;;;;23.65;15.82;;;;;;;;;;5031654;28;20045;-81
2022/11/01 08:00:35;;;;;;;26.70;16.52;;;;;;;;;;5017438;28;20037;-82
2022/11/01 08:03:09;;;;;;;21.50;15.63;;;;;;;;;;5026336;28;20442;-81
2022/11/01 08:05:34;;;;;;;25.15;15.35;;;;;;;;;;5019699;28;20048;-82
2022/11/01 08:08:00;;;;;;;24.25;15.10;;;;;;;;;;5019176;28;20037;-81
2022/11/01 08:10:28;;;;;;;25.55;15.52;;;;;;;;;;5021223;28;20044;-82
2022/11/01 08:13:01;;;;;;;23.42;14.70;;;;;;;;;;5028156;28;20094;-81
2022/11/01 08:15:26;;;;;;;25.10;14.93;;;;;;;;;;5039537;28;20041;-81
2022/11/01 08:17:54;;;;;;;23.42;14.32;;;;;;;;;;5022168;28;20028;-81
2022/11/01 08:20:20;;;;;;;24.45;14.43;;;;;;;;;;5042052;28;20929;-82
2022/11/01 08:22:46;;;;;;;21.50;13.93;;;;;;;;;;5022946;28;20040;-82
2022/11/01 08:25:11;;;;;;;22.40;13.85;;;;;;;;;;5022969;28;20488;-82
2022/11/01 08:27:36;;;;;;;23.10;14.18;;;;;;;;;;5024664;28;20037;-82
2022/11/01 08:30:02;;;;;;;20.80;13.43;;;;;;;;;;5022891;28;20044;-81
2022/11/01 08:32:28;;;;;;;19.95;13.68;;;;;;;;;;5023657;28;20560;-81
2022/11/01 08:34:53;;;;;;;21.73;13.95;;;;;;;;;;5021317;28;20119;-81
2022/11/01 08:37:18;;;;;;;19.98;13.43;;;;;;;;;;5039787;28;20040;-81
2022/11/01 08:39:44;;;;;;;27.95;13.77;;;;;;;;;;5025723;28;20557;-81
2022/11/01 08:42:09;;;;;;;23.67;13.20;;;;;;;;;;5023341;28;20489;-81
2022/11/01 08:44:35;;;;;;;22.38;13.20;;;;;;;;;;5025068;28;20062;-82
2022/11/01 08:47:00;;;;;;;20.88;12.57;;;;;;;;;;5027102;28;20028;-82
2022/11/01 08:49:26;;;;;;;17.30;11.40;;;;;;;;;;5022900;28;20037;-80
2022/11/01 08:51:52;;;;;;;16.23;11.70;;;;;;;;;;5036127;28;20075;-82
2022/11/01 08:54:17;;;;;;;18.60;11.18;;;;;;;;;;5022049;28;20046;-83
2022/11/01 08:56:43;;;;;;;17.63;11.52;;;;;;;;;;5030160;28;20029;-83
2022/11/01 08:59:09;;;;;;;17.13;11.38;;;;;;;;;;5023297;28;20446;-81
2022/11/01 09:01:34;;;;;;;16.40;10.45;;;;;;;;;;5038744;28;20565;-83
2022/11/01 09:04:00;;;;;;;16.98;10.48;;;;;;;;;;5021963;28;20132;-83
2022/11/01 09:06:26;;;;;;;21.50;11.40;;;;;;;;;;5021743;28;20123;-83
2022/11/01 09:08:52;;;;;;;59.78;15.48;;;;;;;;;;5024054;28;20028;-83
2022/11/01 09:11:21;;;;;;;17.23;10.43;;;;;;;;;;5026360;28;20029;-83
2022/11/01 09:13:47;;;;;;;15.45;10.05;;;;;;;;;;5037912;28;20044;-82
2022/11/01 09:16:12;;;;;;;23.77;13.05;;;;;;;;;;5021585;28;20463;-83
2022/11/01 09:18:38;;;;;;;17.27;9.55;;;;;;;;;;5029968;28;20031;-83
2022/11/01 09:21:04;;;;;;;16.92;9.63;;;;;;;;;;5024216;28;20445;-84
2022/11/01 09:23:29;;;;;;;17.52;9.52;;;;;;;;;;5026365;28;20086;-85
2022/11/01 09:26:05;;;;;;;17.30;9.88;;;;;;;;;;5023698;28;20032;-85
2022/11/01 09:28:31;;;;;;;15.65;8.93;;;;;;;;;;5022342;28;20495;-84
2022/11/01 09:30:56;;;;;;;17.38;9.65;;;;;;;;;;5030195;28;20037;-84
2022/11/01 09:33:22;;;;;;;13.73;9.02;;;;;;;;;;5021523;28;20523;-84
2022/11/01 09:35:51;;;;;;;15.45;9.27;;;;;;;;;;5023195;28;20109;-84
2022/11/01 09:38:17;;;;;;;15.38;9.23;;;;;;;;;;5047367;28;20047;-83
2022/11/01 09:40:45;;;;;;;15.50;9.20;;;;;;;;;;5020266;28;20029;-83
2022/11/01 09:43:34;;;;;;;13.95;9.23;;;;;;;;;;5023204;28;20106;-83
2022/11/01 09:46:00;;;;;;;13.90;8.98;;;;;;;;;;4992737;28;20366;-83
2022/11/01 09:48:31;;;;;;;12.75;8.55;;;;;;;;;;4975590;28;20054;-83
2022/11/01 09:50:57;;;;;;;14.25;8.73;;;;;;;;;;4977980;28;20761;-83
2022/11/01 09:53:26;;;;;;;12.57;7.85;;;;;;;;;;4984848;28;20042;-83
2022/11/01 09:55:58;;;;;;;14.48;9.18;;;;;;;;;;4968670;28;20049;-83
2022/11/01 09:58:27;;;;;;;14.68;8.77;;;;;;;;;;4984743;28;20041;-83
2022/11/01 10:01:15;;;;;;;13.52;9.07;;;;;;;;;;4979020;28;20789;-82
2022/11/01 10:04:05;;;;;;;15.30;7.93;;;;;;;;;;4992836;28;20041;-82
2022/11/01 10:06:34;;;;;;;13.68;8.45;;;;;;;;;;4990231;28;20517;-83
2022/11/01 10:09:03;;;;;;;13.15;8.05;;;;;;;;;;4986097;28;20041;-83
2022/11/01 10:11:51;;;;;;;14.05;8.70;;;;;;;;;;4984073;28;20080;-83
2022/11/01 10:14:44;;;;;;;13.30;8.13;;;;;;;;;;4972708;28;20081;-83
2022/11/01 10:17:12;;;;;;;13.27;8.27;;;;;;;;;;4978134;28;20065;-83
2022/11/01 10:19:38;;;;;;;13.80;8.82;;;;;;;;;;4985372;28;20038;-83
2022/11/01 10:22:10;;;;;;;13.70;8.35;;;;;;;;;;4990184;28;20101;-83
2022/11/01 10:24:49;;;;;;;14.70;8.20;;;;;;;;;;5053850;28;20041;-83
2022/11/01 10:27:14;;;;;;;16.75;7.80;;;;;;;;;;5017967;28;20041;-83
2022/11/01 10:29:47;;;;;;;13.68;7.65;;;;;;;;;;5035824;28;20040;-83
2022/11/01 10:32:36;;;;;;;10.60;7.45;;;;;;;;;;5036075;28;20428;-83
2022/11/01 10:35:09;;;;;;;14.30;7.82;;;;;;;;;;5035247;28;20399;-83
2022/11/01 10:37:39;;;;;;;16.23;8.13;;;;;;;;;;5026019;28;20392;-83
2022/11/01 10:40:37;;;;;;;11.40;7.43;;;;;;;;;;5034404;28;20086;-84
2022/11/01 10:43:09;;;;;;;13.30;7.90;;;;;;;;;;4972182;28;20412;-84
2022/11/01 10:45:35;;;;;;;10.70;7.70;;;;;;;;;;5034454;28;20043;-84
2022/11/01 10:48:02;;;;;;;13.27;7.75;;;;;;;;;;5023767;28;20504;-83
2022/11/01 10:50:29;;;;;;;12.20;7.57;;;;;;;;;;5024319;28;20060;-83
2022/11/01 10:52:58;;;;;;;12.95;7.22;;;;;;;;;;5028364;28;20037;-84
2022/11/01 10:55:41;;;;;;;11.73;7.13;;;;;;;;;;5044340;28;20123;-83
2022/11/01 10:58:14;;;;;;;10.85;6.47;;;;;;;;;;5050172;28;20037;-83
2022/11/01 11:00:40;;;;;;;11.82;6.28;;;;;;;;;;5022867;28;20110;-82
2022/11/01 11:03:25;;;;;;;11.10;5.90;;;;;;;;;;5034456;28;20059;-83
2022/11/01 11:05:51;;;;;;;9.15;5.50;;;;;;;;;;5040210;28;20040;-84
2022/11/01 11:08:20;;;;;;;9.15;5.25;;;;;;;;;;5023089;28;20095;-84
2022/11/01 11:10:48;;;;;;;12.02;5.13;;;;;;;;;;5022763;28;20033;-84
2022/11/01 11:13:17;;;;;;;10.20;4.85;;;;;;;;;;5022026;28;20043;-83
2022/11/01 11:16:08;;;;;;;9.85;4.60;;;;;;;;;;5033362;28;20036;-84
2022/11/01 11:18:37;;;;;;;8.32;4.53;;;;;;;;;;5048477;28;20039;-84
2022/11/01 11:21:07;;;;;;;7.28;3.92;;;;;;;;;;4975794;28;20410;-84
2022/11/01 11:23:35;;;;;;;8.43;4.63;;;;;;;;;;5011017;28;20037;-83
2022/11/01 11:26:05;;;;;;;9.93;4.95;;;;;;;;;;5032324;28;20116;-84
2022/11/01 11:28:32;;;;;;;7.88;4.03;;;;;;;;;;5022192;28;20037;-84
2022/11/01 11:31:15;;;;;;;;;;;;;;;;;;5035816;28;20036;-84
2022/11/01 11:33:52;;;;;;;7.95;4.03;;;;;;;;;;5035640;28;19920;-84
2022/11/01 11:36:24;;;;;;;;;;;;;;;;;;5022901;28;20038;-83
2022/11/01 11:38:50;;;;;;;7.82;4.18;;;;;;;;;;5023231;28;19939;-83
2022/11/01 11:41:35;;;;;;;7.43;3.95;;;;;;;;;;5020987;28;20040;-84
2022/11/01 11:44:00;;;;;;;8.10;4.35;;;;;;;;;;5022086;28;20035;-84
2022/11/01 11:46:25;;;;;;;5.97;4.03;;;;;;;;;;5027536;28;20708;-83
2022/11/01 11:49:05;;;;;;;8.05;3.83;;;;;;;;;;5021316;28;20024;-84
2022/11/01 11:51:38;;;;;;;9.57;4.88;;;;;;;;;;5042652;28;20120;-83
2022/11/01 11:54:27;;;;;;;9.27;4.50;;;;;;;;;;5039411;28;20511;-83
2022/11/01 11:57:08;;;;;;;7.90;3.63;;;;;;;;;;5020384;28;20474;-83
2022/11/01 11:59:34;;;;;;;6.50;3.60;;;;;;;;;;5036767;28;20116;-83
2022/11/01 12:02:05;;;;;;;16.05;5.53;;;;;;;;;;5036571;28;20125;-83
2022/11/01 12:04:38;;;;;;;10.65;4.22;;;;;;;;;;5035822;28;20049;-83
2022/11/01 12:07:06;;;;;;;7.38;3.97;;;;;;;;;;5039587;28;20508;-82
2022/11/01 12:09:44;;;;;;;15.85;5.30;;;;;;;;;;5027496;28;20488;-83
2022/11/01 12:12:23;;;;;;;8.68;4.20;;;;;;;;;;5023669;28;20076;-82
2022/11/01 12:14:49;;;;;;;7.88;4.35;;;;;;;;;;5040135;28;20450;-82
2022/11/01 12:17:35;;;;;;;10.15;4.80;;;;;;;;;;5028293;28;20115;-82
2022/11/01 12:20:08;;;;;;;9.65;4.25;;;;;;;;;;5038478;28;20997;-83
2022/11/01 12:22:36;;;;;;;8.10;4.38;;;;;;;;;;5047907;28;20032;-83
2022/11/01 12:25:04;;;;;;;7.32;4.05;;;;;;;;;;5031968;28;20769;-82
2022/11/01 12:27:32;;;;;;;7.05;4.63;;;;;;;;;;5024967;28;20837;-83
2022/11/01 12:30:07;;;;;;;;;;;;;;;;;;5023592;28;20062;-82
2022/11/01 12:32:47;;;;;;;7.93;4.38;;;;;;;;;;5030342;28;19923;-82
2022/11/01 12:35:21;;;;;;;7.90;4.18;;;;;;;;;;5037039;28;20502;-83
2022/11/01 12:37:50;;;;;;;9.25;4.57;;;;;;;;;;5023487;28;20033;-82
2022/11/01 12:40:20;;;;;;;11.23;4.78;;;;;;;;;;5024144;28;20504;-82
2022/11/01 12:42:50;;;;;;;7.63;4.22;;;;;;;;;;5047525;28;20118;-84
2022/11/01 12:45:51;;;;;;;7.53;4.28;;;;;;;;;;5036155;28;20063;-82
2022/11/01 12:48:43;;;;;;;12.38;4.57;;;;;;;;;;5041178;28;20141;-83
2022/11/01 12:51:17;;;;;;;9.48;4.43;;;;;;;;;;5006348;28;20106;-83
2022/11/01 12:53:55;;;;;;;9.13;4.32;;;;;;;;;;5031945;28;20048;-83
2022/11/01 12:56:20;;;;;;;8.52;4.47;;;;;;;;;;5047108;28;20063;-83
2022/11/01 12:58:46;;;;;;;9.05;4.25;;;;;;;;;;5022986;28;20127;-82
2022/11/01 13:01:37;;;;;;;7.53;4.30;;;;;;;;;;5038010;28;20036;-82
2022/11/01 13:04:25;;;;;;;6.93;4.28;;;;;;;;;;5044351;28;20052;-82
2022/11/01 13:07:09;;;;;;;7.95;4.10;;;;;;;;;;5035472;28;20175;-83
2022/11/01 13:10:01;;;;;;;9.73;3.92;;;;;;;;;;5026143;28;20037;-83
2022/11/01 13:12:47;;;;;;;6.70;3.95;;;;;;;;;;5035548;28;20052;-83
2022/11/01 13:15:21;;;;;;;6.15;3.85;;;;;;;;;;5037046;28;20036;-83
2022/11/01 13:18:13;;;;;;;6.93;3.60;;;;;;;;;;5021650;28;20538;-83
2022/11/01 13:20:43;;;;;;;9.80;3.22;;;;;;;;;;5022492;28;20093;-83
2022/11/01 13:23:36;;;;;;;10.30;3.88;;;;;;;;;;5026329;28;20037;-83
2022/11/01 13:26:23;;;;;;;5.55;3.03;;;;;;;;;;5036391;28;20043;-82
2022/11/01 13:29:10;;;;;;;4.63;3.00;;;;;;;;;;5041924;28;20112;-83
2022/11/01 13:31:44;;;;;;;6.22;3.38;;;;;;;;;;5055620;28;20063;-83
2022/11/01 13:34:20;;;;;;;6.80;3.70;;;;;;;;;;5038523;28;20507;-83
2022/11/01 13:37:09;;;;;;;8.00;3.70;;;;;;;;;;5037791;28;20827;-82
2022/11/01 13:39:53;;;;;;;5.70;3.50;;;;;;;;;;5054309;28;20045;-82
2022/11/01 13:42:25;;;;;;;7.53;3.55;;;;;;;;;;5034814;28;20032;-83
2022/11/01 13:45:16;;;;;;;6.63;3.05;;;;;;;;;;5023416;28;20032;-83
2022/11/01 13:48:06;;;;;;;8.25;3.35;;;;;;;;;;5040945;28;20460;-83
2022/11/01 13:51:00;;;;;;;7.78;3.85;;;;;;;;;;5035663;28;20114;-82
2022/11/01 13:53:37;;;;;;;6.43;3.13;;;;;;;;;;5023639;28;20507;-83
2022/11/01 13:56:14;;;;;;;;;;;;;;;;;;5018831;28;20083;-83
2022/11/01 13:58:39;;;;;;;7.72;3.40;;;;;;;;;;5028915;28;19916;-83
2022/11/01 14:01:27;;;;;;;5.63;3.42;;;;;;;;;;5027586;28;20059;-83
2022/11/01 14:04:36;;;;;;;8.23;3.20;;;;;;;;;;5047350;28;20369;-83
2022/11/01 14:07:19;;;;;;;6.35;3.42;;;;;;;;;;4977175;28;20103;-83
2022/11/01 14:09:48;;;;;;;7.60;3.42;;;;;;;;;;5029489;28;20048;-83
2022/11/01 14:12:36;;;;;;;8.07;3.60;;;;;;;;;;5028595;28;20033;-83
2022/11/01 14:15:23;;;;;;;7.60;3.60;;;;;;;;;;5046488;28;20102;-83
2022/11/01 14:17:52;;;;;;;7.28;3.65;;;;;;;;;;5036678;28;20372;-83
2022/11/01 14:20:24;;;;;;;7.80;4.00;;;;;;;;;;5055140;28;20131;-84
2022/11/01 14:22:50;;;;;;;4.80;3.20;;;;;;;;;;5039025;28;20115;-83
2022/11/01 14:25:15;;;;;;;9.85;4.00;;;;;;;;;;5022509;28;20571;-83
2022/11/01 14:27:43;;;;;;;7.53;3.75;;;;;;;;;;5036626;28;20040;-83
2022/11/01 14:30:12;;;;;;;7.20;3.28;;;;;;;;;;5019993;28;20118;-83
2022/11/01 14:32:38;;;;;;;6.72;3.55;;;;;;;;;;5037815;28;20036;-83
2022/11/01 14:35:12;;;;;;;8.40;3.55;;;;;;;;;;5017876;28;20064;-83
2022/11/01 14:37:47;;;;;;;6.10;3.25;;;;;;;;;;5020688;28;20059;-84
2022/11/01 14:40:12;;;;;;;5.53;3.00;;;;;;;;;;5027883;28;20040;-83
2022/11/01 14:42:41;;;;;;;6.50;3.70;;;;;;;;;;5037023;28;20032;-84
2022/11/01 14:45:23;;;;;;;9.40;4.20;;;;;;;;;;5039584;28;20280;-83
2022/11/01 14:47:50;;;;;;;8.05;3.50;;;;;;;;;;5027427;28;20379;-83
2022/11/01 14:50:49;;;;;;;6.20;3.40;;;;;;;;;;5033384;28;20048;-84
2022/11/01 14:53:33;;;;;;;8.13;3.40;;;;;;;;;;5018106;28;20033;-84